createdAt,value
2022-12-31T00:01:10.855Z,2.3
2022-12-31T00:05:20.023Z,1.8
2022-12-31T00:07:23.069Z,2.3
2022-12-31T00:08:26.136Z,4.1
2022-12-31T00:10:29.158Z,2.5
2022-12-31T00:12:32.199Z,1
2022-12-31T00:14:35.195Z,0.5
2022-12-31T00:16:41.420Z,1.2
2022-12-31T00:18:44.428Z,0.7
2022-12-31T00:22:52.019Z,0.2
2022-12-31T00:24:55.037Z,0.1
2022-12-31T00:26:58.163Z,0.4
2022-12-31T00:29:01.204Z,0.3
2022-12-31T00:31:07.404Z,0.1
2022-12-31T00:33:10.363Z,0.4
2022-12-31T00:35:13.404Z,0.8
2022-12-31T00:37:16.448Z,0.2
2022-12-31T00:39:19.474Z,0.1
2022-12-31T00:41:22.483Z,0.3
2022-12-31T00:43:25.528Z,0.2
2022-12-31T00:45:31.692Z,0.5
2022-12-31T00:47:34.734Z,0.6
2022-12-31T00:49:37.743Z,0.2
2022-12-31T00:51:40.783Z,1
2022-12-31T00:53:43.807Z,0.5
2022-12-31T00:55:46.823Z,0.2
2022-12-31T00:57:49.870Z,0.7
2022-12-31T00:59:55.986Z,0.3
2022-12-31T01:01:59.146Z,0.4
2022-12-31T01:04:02.078Z,0.2
2022-12-31T01:05:05.146Z,0.4
2022-12-31T01:11:14.341Z,0.2
2022-12-31T01:13:20.486Z,0
2022-12-31T01:15:23.628Z,0.1
2022-12-31T01:17:26.545Z,0
2022-12-31T01:19:29.599Z,0.3
2022-12-31T01:21:32.617Z,0
2022-12-31T01:23:35.656Z,0.2
2022-12-31T01:31:50.925Z,0.2
2022-12-31T01:33:53.944Z,0.1
2022-12-31T01:38:00.009Z,0.1
2022-12-31T01:42:09.207Z,0.4
2022-12-31T01:44:12.374Z,0.5
2022-12-31T01:48:18.367Z,0.2
2022-12-31T01:50:21.422Z,0
2022-12-31T01:52:24.465Z,0.1
2022-12-31T01:56:33.630Z,0.1
2022-12-31T02:03:01.313Z,0.2
2022-12-31T02:09:13.487Z,0.8
2022-12-31T02:11:16.514Z,2.2
2022-12-31T02:13:19.560Z,0.6
2022-12-31T02:15:22.668Z,0.8
2022-12-31T02:17:25.820Z,1.6
2022-12-31T02:19:28.931Z,1.1
2022-12-31T02:21:32.079Z,0.2
2022-12-31T02:31:50.683Z,0.6
2022-12-31T02:33:53.791Z,1.1
2022-12-31T02:38:03.296Z,3.1
2022-12-31T02:44:12.705Z,1.1
2022-12-31T02:50:22.113Z,1.7
2022-12-31T02:59:40.978Z,2.6
2022-12-31T03:01:44.165Z,3.2
2022-12-31T03:03:47.190Z,2.2
2022-12-31T03:05:53.455Z,3.9
2022-12-31T03:07:56.587Z,1.4
2022-12-31T03:09:59.719Z,1.6
2022-12-31T03:12:02.851Z,2.4
2022-12-31T03:14:06.031Z,2
2022-12-31T03:16:09.228Z,1.3
2022-12-31T03:18:12.293Z,2.9
2022-12-31T03:20:18.635Z,2.4
2022-12-31T03:22:21.785Z,1.4
2022-12-31T03:24:24.924Z,1.4
2022-12-31T03:26:28.063Z,0.8
2022-12-31T03:28:31.236Z,1.4
2022-12-31T03:30:34.357Z,0.7
2022-12-31T03:32:37.481Z,0.3
2022-12-31T03:34:43.847Z,0.6
2022-12-31T03:36:46.990Z,0.3
2022-12-31T03:40:53.142Z,0.1
2022-12-31T03:42:56.275Z,0.3
2022-12-31T03:44:59.433Z,0.3
2022-12-31T03:47:02.553Z,0.2
2022-12-31T03:49:08.895Z,0.3
2022-12-31T03:51:11.931Z,0.1
2022-12-31T03:53:15.092Z,0
2022-12-31T03:54:18.228Z,0.1
2022-12-31T03:56:21.384Z,0.1
2022-12-31T03:58:24.500Z,0
2022-12-31T04:00:27.645Z,0
2022-12-31T04:02:34.180Z,0
2022-12-31T04:04:37.158Z,0.1
2022-12-31T04:06:40.266Z,0
2022-12-31T04:08:43.396Z,0.1
2022-12-31T04:10:46.501Z,0.3
2022-12-31T04:12:49.670Z,0
2022-12-31T04:14:52.792Z,0
2022-12-31T04:16:59.142Z,0
2022-12-31T04:19:02.284Z,0
2022-12-31T04:21:05.393Z,0.4
2022-12-31T04:23:08.530Z,0.1
2022-12-31T04:25:11.829Z,0
2022-12-31T04:31:24.397Z,0.1
2022-12-31T04:33:27.409Z,0.2
2022-12-31T04:35:30.519Z,0
2022-12-31T04:37:33.656Z,0
2022-12-31T04:39:36.815Z,0
2022-12-31T04:41:39.931Z,0.2
2022-12-31T04:47:52.534Z,0.1
2022-12-31T04:49:55.700Z,0.5
2022-12-31T04:53:01.986Z,0
2022-12-31T04:55:05.106Z,0
2022-12-31T04:57:08.245Z,0.3
2022-12-31T05:05:24.027Z,0
2022-12-31T05:07:27.114Z,0.1
2022-12-31T05:09:30.261Z,0
2022-12-31T05:11:33.395Z,0.4
2022-12-31T05:17:46.007Z,0.1
2022-12-31T05:19:49.153Z,0
2022-12-31T05:21:52.270Z,0.1
2022-12-31T05:23:55.416Z,0.2
2022-12-31T05:28:04.871Z,0.1
2022-12-31T05:32:11.117Z,0.1
2022-12-31T05:34:14.249Z,0.1
2022-12-31T05:36:17.380Z,0.1
2022-12-31T05:38:20.538Z,0.2
2022-12-31T05:40:23.678Z,0.1
2022-12-31T05:42:30.020Z,0.1
2022-12-31T05:44:33.146Z,0.1
2022-12-31T05:46:36.286Z,0
2022-12-31T05:48:56.032Z,-1
2022-12-31T05:51:04.252Z,0
2022-12-31T05:53:07.393Z,0
2022-12-31T05:55:13.728Z,0.1
2022-12-31T05:57:16.885Z,0
2022-12-31T05:59:20.038Z,0
2022-12-31T06:01:23.148Z,0
2022-12-31T06:03:26.379Z,0
2022-12-31T06:05:29.408Z,0
2022-12-31T06:09:38.899Z,0
2022-12-31T06:17:53.040Z,0
2022-12-31T06:19:56.117Z,0
2022-12-31T06:21:59.179Z,0
2022-12-31T06:24:05.419Z,0
2022-12-31T06:26:08.550Z,0
2022-12-31T06:30:14.846Z,0
2022-12-31T06:34:21.110Z,0.1
2022-12-31T06:36:24.237Z,0
2022-12-31T06:38:30.495Z,0
2022-12-31T06:40:33.535Z,0
2022-12-31T06:42:36.564Z,0
2022-12-31T06:43:39.656Z,0
2022-12-31T06:47:45.696Z,0.1
2022-12-31T06:51:54.996Z,0.1
2022-12-31T06:53:58.127Z,0.3
2022-12-31T06:56:01.292Z,0.7
2022-12-31T06:58:04.398Z,0.4
2022-12-31T07:00:07.549Z,0.7
2022-12-31T07:02:10.731Z,0.6
2022-12-31T07:04:13.829Z,0.9
2022-12-31T07:06:20.173Z,1.1
2022-12-31T07:12:29.575Z,1
2022-12-31T07:14:32.615Z,1.5
2022-12-31T07:24:50.877Z,0.9
2022-12-31T07:26:56.720Z,0.1
2022-12-31T07:28:56.920Z,0.8
2022-12-31T07:30:59.972Z,1.1
2022-12-31T07:35:09.150Z,0.3
2022-12-31T07:37:12.124Z,0.1
2022-12-31T07:40:18.268Z,0.1
2022-12-31T07:42:21.285Z,0.7
2022-12-31T07:44:24.303Z,0.2
2022-12-31T07:46:27.506Z,0.7
2022-12-31T07:48:33.469Z,0.9
2022-12-31T07:50:36.509Z,0.5
2022-12-31T07:52:39.536Z,0.9
2022-12-31T07:56:45.607Z,0.9
2022-12-31T08:00:51.749Z,0.7
2022-12-31T08:02:57.874Z,0.4
2022-12-31T08:05:00.863Z,0.3
2022-12-31T08:07:03.889Z,0.1
2022-12-31T08:09:06.922Z,0.4
2022-12-31T08:11:09.976Z,0.1
2022-12-31T08:17:22.237Z,0.4
2022-12-31T08:33:49.600Z,0.1
2022-12-31T08:36:55.692Z,0.1
2022-12-31T08:41:01.766Z,0.4
2022-12-31T08:43:04.799Z,0.1
2022-12-31T08:45:10.976Z,0.1
2022-12-31T08:47:14.010Z,0.4
2022-12-31T08:49:17.102Z,0.2
2022-12-31T08:51:20.053Z,0.2
2022-12-31T08:53:23.074Z,0.2
2022-12-31T08:55:26.119Z,0.5
2022-12-31T08:57:29.153Z,0.4
2022-12-31T08:59:35.293Z,0.1
2022-12-31T09:01:38.474Z,0.1
2022-12-31T09:03:41.337Z,0.2
2022-12-31T09:16:02.616Z,0
2022-12-31T09:18:05.644Z,0.1
2022-12-31T09:20:08.681Z,0
2022-12-31T09:24:14.746Z,0.1
2022-12-31T09:26:17.784Z,0.1
2022-12-31T09:28:23.913Z,0
2022-12-31T09:30:26.944Z,0
2022-12-31T09:32:29.989Z,0
2022-12-31T09:34:53.567Z,0.1
2022-12-31T09:36:56.645Z,0.1
2022-12-31T09:38:59.638Z,0.1
2022-12-31T09:41:05.757Z,0.3
2022-12-31T09:43:08.825Z,0.1
2022-12-31T09:45:11.849Z,0.1
2022-12-31T09:47:14.884Z,0.2
2022-12-31T09:57:33.149Z,0.4
2022-12-31T10:03:42.271Z,0.4
2022-12-31T10:05:45.301Z,0.2
2022-12-31T10:07:52.371Z,0.7
2022-12-31T10:09:54.492Z,0.5
2022-12-31T10:11:57.541Z,0.4
2022-12-31T10:16:03.592Z,0
2022-12-31T10:18:06.648Z,0.1
2022-12-31T10:20:09.735Z,0
2022-12-31T10:22:12.731Z,0.3
2022-12-31T10:24:18.861Z,0
2022-12-31T10:26:21.866Z,0.3
2022-12-31T10:28:24.929Z,0.1
2022-12-31T10:29:28.007Z,0.1
2022-12-31T10:35:37.120Z,0.2
2022-12-31T10:37:43.239Z,0.8
2022-12-31T10:39:46.298Z,0.1
2022-12-31T10:43:52.323Z,0.1
2022-12-31T10:47:58.393Z,0.2
2022-12-31T10:52:07.574Z,0
2022-12-31T10:56:13.609Z,0.1
2022-12-31T10:58:16.641Z,0.6
2022-12-31T11:00:19.692Z,0.2
2022-12-31T11:02:22.955Z,0
2022-12-31T11:04:25.714Z,0.1
2022-12-31T11:06:31.894Z,0.1
2022-12-31T11:08:34.903Z,0.1
2022-12-31T11:10:37.927Z,0.4
2022-12-31T11:12:40.944Z,0.2
2022-12-31T11:14:43.939Z,0.2
2022-12-31T11:25:02.198Z,1.4
2022-12-31T11:26:05.303Z,0.1
2022-12-31T11:28:08.323Z,0.3
2022-12-31T11:30:11.381Z,0
2022-12-31T11:32:14.368Z,0
2022-12-31T11:34:20.503Z,0.2
2022-12-31T11:36:23.540Z,0.1
2022-12-31T11:38:26.572Z,0.7
2022-12-31T11:40:29.605Z,0.6
2022-12-31T11:42:32.603Z,0.2
2022-12-31T11:44:35.626Z,0.1
2022-12-31T11:46:38.731Z,1.8
2022-12-31T11:48:44.809Z,0.9
2022-12-31T11:50:47.834Z,0.5
2022-12-31T11:52:50.863Z,0.1
2022-12-31T11:54:53.879Z,0.3
2022-12-31T11:56:56.905Z,0.2
2022-12-31T11:59:02.536Z,0.5
2022-12-31T12:01:03.024Z,0.2
2022-12-31T12:03:09.157Z,0.1
2022-12-31T12:05:12.139Z,0.3
2022-12-31T12:07:15.151Z,0.2
2022-12-31T12:09:18.208Z,0.2
2022-12-31T12:11:21.220Z,0.1
2022-12-31T12:13:25.819Z,0.3
2022-12-31T12:15:28.809Z,0.2
2022-12-31T12:17:34.938Z,1.4
2022-12-31T12:19:37.930Z,0.4
2022-12-31T12:21:40.978Z,0.3
2022-12-31T12:22:49.421Z,0.8
2022-12-31T12:24:47.091Z,0.4
2022-12-31T12:26:50.105Z,0.2
2022-12-31T12:28:53.140Z,0
2022-12-31T12:30:59.339Z,0.5
2022-12-31T12:33:02.354Z,0.1
2022-12-31T12:35:05.345Z,0.3
2022-12-31T12:37:08.379Z,0.5
2022-12-31T12:39:11.401Z,0.4
2022-12-31T12:41:14.459Z,0.4
2022-12-31T12:43:17.495Z,0.3
2022-12-31T12:45:23.664Z,0.4
2022-12-31T12:47:26.631Z,0.3
2022-12-31T12:51:32.743Z,0.4
2022-12-31T12:53:35.752Z,0.6
2022-12-31T12:55:38.789Z,0.7
2022-12-31T12:59:47.956Z,1.1
2022-12-31T13:01:51.217Z,0.2
2022-12-31T13:04:32.591Z,0
2022-12-31T13:05:57.041Z,0.2
2022-12-31T13:08:00.122Z,0.1
2022-12-31T13:10:03.139Z,0.3
2022-12-31T13:12:08.015Z,0.2
2022-12-31T13:14:12.268Z,0.1
2022-12-31T13:16:15.346Z,0.1
2022-12-31T13:18:18.355Z,0.6
2022-12-31T13:24:53.827Z,0.5
2022-12-31T13:26:59.982Z,0.2
2022-12-31T13:29:03.006Z,0.2
2022-12-31T13:31:07.151Z,0.1
2022-12-31T13:33:09.055Z,0.1
2022-12-31T13:35:12.099Z,0.1
2022-12-31T13:37:15.124Z,0.3
2022-12-31T13:39:18.158Z,0.3
2022-12-31T13:41:24.275Z,1.7
2022-12-31T13:45:30.413Z,0.2
2022-12-31T13:49:36.386Z,0.3
2022-12-31T13:51:39.396Z,0.9
2022-12-31T13:53:42.421Z,0.2
2022-12-31T13:55:52.071Z,0.3
2022-12-31T13:57:51.616Z,0.8
2022-12-31T13:59:54.644Z,0.3
2022-12-31T14:01:57.906Z,1.3
2022-12-31T14:04:00.696Z,1.8
2022-12-31T14:06:03.731Z,0.7
2022-12-31T14:08:06.759Z,0.1
2022-12-31T14:10:12.878Z,0.1
2022-12-31T14:12:15.910Z,0.7
2022-12-31T14:15:22.022Z,0.5
2022-12-31T14:17:25.051Z,0.6
2022-12-31T14:19:33.206Z,0.3
2022-12-31T14:21:31.138Z,0.1
2022-12-31T14:23:37.235Z,0.7
2022-12-31T14:25:40.250Z,0.7
2022-12-31T14:27:43.314Z,0.3
2022-12-31T14:29:46.284Z,0.4
2022-12-31T14:31:49.572Z,0.6
2022-12-31T14:33:52.384Z,0.6
2022-12-31T14:35:55.383Z,0.2
2022-12-31T14:38:01.525Z,0.6
2022-12-31T14:40:04.527Z,1
2022-12-31T14:42:07.684Z,0.9
2022-12-31T14:44:10.598Z,1.2
2022-12-31T14:46:13.645Z,0.1
2022-12-31T14:48:20.117Z,0.2
2022-12-31T14:50:19.681Z,0.2
2022-12-31T14:52:25.935Z,1
2022-12-31T14:54:29.267Z,0.4
2022-12-31T14:56:31.870Z,0.5
2022-12-31T14:58:34.902Z,0.6
2022-12-31T15:00:37.921Z,0.3
2022-12-31T15:02:41.052Z,1
2022-12-31T15:04:43.975Z,1.8
2022-12-31T15:08:53.113Z,2
2022-12-31T15:10:56.163Z,0.4
2022-12-31T15:16:05.304Z,2.6
2022-12-31T15:20:17.521Z,3
2022-12-31T15:22:17.502Z,0.9
2022-12-31T15:24:20.526Z,1.4
2022-12-31T15:26:23.510Z,0.6
2022-12-31T15:28:26.704Z,1.6
2022-12-31T15:30:29.600Z,1.3
2022-12-31T15:32:32.630Z,1.3
2022-12-31T15:34:38.755Z,0.7
2022-12-31T15:36:41.785Z,1
2022-12-31T15:38:44.810Z,1.4
2022-12-31T15:42:50.878Z,0.5
2022-12-31T15:44:53.886Z,0.7
2022-12-31T15:46:56.898Z,1.8
2022-12-31T15:49:06.778Z,2.3
2022-12-31T15:51:06.095Z,1.2
2022-12-31T15:53:09.094Z,2.1
2022-12-31T15:55:12.129Z,0.8
2022-12-31T15:57:15.162Z,1.2
2022-12-31T15:59:18.203Z,2.3
2022-12-31T16:01:21.333Z,0.8
2022-12-31T16:03:27.439Z,0.9
2022-12-31T16:05:30.375Z,2.5
2022-12-31T16:07:33.396Z,1.6
2022-12-31T16:08:36.458Z,1.6
2022-12-31T16:10:39.488Z,1.2
2022-12-31T16:12:44.556Z,3.8
2022-12-31T16:14:45.643Z,1.7
2022-12-31T16:16:51.652Z,1.4
2022-12-31T16:18:54.677Z,0.7
2022-12-31T16:20:58.389Z,0.8
2022-12-31T16:23:01.404Z,1.5
2022-12-31T16:25:30.272Z,2.1
2022-12-31T16:27:07.483Z,1.2
2022-12-31T16:29:10.479Z,0.6
2022-12-31T16:31:16.694Z,1
2022-12-31T16:33:19.664Z,2
2022-12-31T16:35:23.872Z,0.6
2022-12-31T16:37:25.686Z,1.7
2022-12-31T16:39:28.704Z,0.6
2022-12-31T16:41:31.692Z,0.7
2022-12-31T16:47:43.886Z,0.6
2022-12-31T16:49:46.882Z,2.2
2022-12-31T16:51:49.851Z,2.3
2022-12-31T16:53:52.874Z,0.9
2022-12-31T16:55:55.910Z,0.5
2022-12-31T16:57:58.928Z,1.1
2022-12-31T17:00:05.042Z,0.9
2022-12-31T17:02:08.121Z,1.3
2022-12-31T17:04:11.058Z,1.6
2022-12-31T17:06:40.430Z,1.9
2022-12-31T17:08:43.455Z,1.7
2022-12-31T17:10:46.580Z,1.7
2022-12-31T17:13:27.210Z,1.1
2022-12-31T17:14:55.621Z,1.1
2022-12-31T17:17:03.180Z,1.6
2022-12-31T17:23:07.747Z,4
2022-12-31T17:25:10.774Z,2.8
2022-12-31T17:27:16.876Z,2.4
2022-12-31T17:45:47.164Z,1.7
2022-12-31T17:47:50.189Z,1.2
2022-12-31T17:56:05.375Z,1.6
2022-12-31T18:01:14.579Z,1.2
2022-12-31T18:03:17.457Z,1
2022-12-31T18:05:20.475Z,0.3
2022-12-31T18:07:25.103Z,1.1
2022-12-31T18:09:31.158Z,1.1
2022-12-31T18:11:34.176Z,2.4
2022-12-31T18:13:37.222Z,1.8
2022-12-31T18:15:40.232Z,0.5
2022-12-31T18:17:43.259Z,1.5
2022-12-31T18:20:04.064Z,1.4
2022-12-31T18:25:58.431Z,1.6
2022-12-31T18:28:01.471Z,2.1
2022-12-31T18:30:06.458Z,1.6
2022-12-31T18:32:07.497Z,1.2
2022-12-31T18:34:10.548Z,2.1
2022-12-31T18:36:13.551Z,0.7
2022-12-31T18:40:22.706Z,2
2022-12-31T18:42:25.716Z,1.2
2022-12-31T18:44:28.730Z,1.5
2022-12-31T18:46:31.760Z,4.3
2022-12-31T18:50:37.821Z,1.3
2022-12-31T18:52:43.979Z,2
2022-12-31T18:54:46.982Z,1.8
2022-12-31T18:56:55.286Z,2.3
2022-12-31T18:57:53.084Z,1.4
2022-12-31T18:59:56.079Z,0.8
2022-12-31T19:01:59.285Z,1.4
2022-12-31T19:04:02.150Z,1.7
2022-12-31T19:06:08.296Z,1.1
2022-12-31T19:08:11.285Z,0.5
2022-12-31T19:10:14.320Z,1.2
2022-12-31T19:12:17.320Z,1.6
2022-12-31T19:18:26.409Z,1.8
2022-12-31T19:24:38.559Z,1.8
2022-12-31T19:26:43.630Z,1.8
2022-12-31T19:30:47.625Z,28.5
2022-12-31T19:34:56.774Z,2.5
2022-12-31T19:36:59.787Z,1.7
2022-12-31T19:39:02.835Z,1.3
2022-12-31T19:41:05.854Z,1.1
2022-12-31T19:43:08.873Z,1.8
2022-12-31T19:45:11.894Z,1.7
2022-12-31T19:47:14.904Z,2.1
2022-12-31T19:49:21.037Z,1.2
2022-12-31T19:51:24.036Z,2
2022-12-31T19:53:27.083Z,1.7
2022-12-31T19:54:30.170Z,0.8
2022-12-31T19:58:36.184Z,0.4
2022-12-31T20:04:48.339Z,1.3
2022-12-31T20:06:51.372Z,11.9
2022-12-31T20:08:54.391Z,4.4
2022-12-31T20:13:00.454Z,3.8
2022-12-31T20:15:03.477Z,1.2
2022-12-31T20:17:09.599Z,3.1
2022-12-31T20:19:12.638Z,1.2
2022-12-31T20:21:15.672Z,7.3
2022-12-31T20:23:18.685Z,3.5
2022-12-31T20:25:21.705Z,2.6
2022-12-31T20:27:24.764Z,2.8
2022-12-31T20:29:27.761Z,2.5
2022-12-31T20:31:33.883Z,1.4
2022-12-31T20:33:36.902Z,1.6
2022-12-31T20:35:39.913Z,2.1
2022-12-31T20:37:42.949Z,1.2
2022-12-31T20:39:45.992Z,0.8
2022-12-31T20:48:01.185Z,1.3
2022-12-31T20:50:12.554Z,5.3
2022-12-31T20:52:28.077Z,3.3
2022-12-31T20:54:31.105Z,2.8
2022-12-31T20:58:40.281Z,4.4
2022-12-31T21:00:43.309Z,4
2022-12-31T21:02:51.489Z,2.5
2022-12-31T21:04:49.538Z,2.4
2022-12-31T21:06:52.402Z,1.9
2022-12-31T21:08:55.421Z,1.4
2022-12-31T21:10:58.441Z,1.7
2022-12-31T21:13:04.587Z,1.9
2022-12-31T21:15:07.604Z,2
2022-12-31T21:19:13.661Z,1.7
2022-12-31T21:23:19.713Z,1.9
2022-12-31T21:27:28.853Z,3.4
2022-12-31T21:29:34.758Z,2.4
2022-12-31T21:33:37.950Z,2.9
2022-12-31T21:37:59.130Z,2.3
2022-12-31T21:39:47.003Z,2.2
2022-12-31T21:41:53.231Z,7
2022-12-31T21:43:56.184Z,7.6
2022-12-31T21:45:59.221Z,2.4
2022-12-31T21:47:34.058Z,5.2
2022-12-31T21:49:05.314Z,3.1
2022-12-31T21:51:08.336Z,2.7
2022-12-31T21:53:11.346Z,2.8
2022-12-31T21:55:17.517Z,5.1
2022-12-31T21:57:20.508Z,2.4
2022-12-31T21:59:23.535Z,3.9
2022-12-31T22:01:26.793Z,4.8
2022-12-31T22:03:29.676Z,5.6
2022-12-31T22:05:32.609Z,2.2
2022-12-31T22:07:35.791Z,1.5
2022-12-31T22:09:41.799Z,2.5
2022-12-31T22:11:44.841Z,1
2022-12-31T22:13:47.838Z,7.6
2022-12-31T22:15:50.938Z,63.4
2022-12-31T22:17:54.083Z,4.5
2022-12-31T22:24:06.121Z,2.6
2022-12-31T22:26:09.156Z,3.4
2022-12-31T22:28:37.645Z,2.3
2022-12-31T22:30:15.210Z,2.6
2022-12-31T22:32:18.263Z,3.2
2022-12-31T22:42:36.467Z,2.7
2022-12-31T22:43:39.709Z,1.9
2022-12-31T22:45:42.584Z,1.5
2022-12-31T22:47:45.637Z,3.5
2022-12-31T22:49:48.668Z,3.3
2022-12-31T22:51:58.970Z,3.5
2022-12-31T22:53:57.781Z,4.2
2022-12-31T22:56:00.818Z,3.9
2022-12-31T22:58:03.851Z,3.3
2022-12-31T23:00:06.947Z,1.4
2022-12-31T23:02:10.034Z,18.4
2022-12-31T23:04:13.020Z,25.6
2022-12-31T23:06:19.126Z,36.1
2022-12-31T23:08:23.686Z,43
2022-12-31T23:10:25.172Z,49
2022-12-31T23:12:28.203Z,49.1
2022-12-31T23:14:31.232Z,71.1
2022-12-31T23:16:34.330Z,164.2
2022-12-31T23:18:37.267Z,53
2022-12-31T23:20:43.425Z,35.6
2022-12-31T23:22:46.390Z,25.2
2022-12-31T23:24:49.427Z,44.1
2022-12-31T23:26:52.463Z,23.7
2022-12-31T23:28:55.504Z,20.4
2022-12-31T23:30:58.536Z,18.4
2022-12-31T23:33:01.573Z,15.4
2022-12-31T23:35:10.109Z,11.6
2022-12-31T23:37:10.747Z,21.1
2022-12-31T23:39:13.775Z,8.3
2022-12-31T23:40:21.156Z,5.4
2022-12-31T23:42:19.892Z,19.7
2022-12-31T23:46:26.001Z,7
2022-12-31T23:50:35.087Z,8.9
2022-12-31T23:52:38.153Z,8.9
2022-12-31T23:54:41.158Z,7.6
2022-12-31T23:56:44.164Z,9.2
2022-12-31T23:58:47.194Z,10.3
